Time;durP1;ratioP1;P1;durP2;ratioP2;P2;SDS_P1;SDS_P2;PMS_P1;PMS_P2;Temp;Humidity;BMP_temperature;BMP_pressure;BME280_temperature;BME280_humidity;BME280_pressure;Samples;Min_cycle;Max_cycle;Signal;HPM_P1;HPM_P2
2023/01/09 00:02:39;;;;;;;15.90;14.50;;;;;;;21.14;32.68;95286.19;6168454;28;102774;-78
2023/01/09 00:05:43;;;;;;;15.07;13.77;;;;;;;21.26;32.80;95310.47;6167949;28;102966;-77
2023/01/09 00:08:46;;;;;;;14.87;13.57;;;;;;;21.27;32.76;95303.28;6173090;28;104076;-78
2023/01/09 00:11:53;;;;;;;15.77;14.27;;;;;;;21.25;32.70;95310.78;6171767;28;103401;-78
2023/01/09 00:14:57;;;;;;;14.30;13.10;;;;;;;21.18;32.45;95298.66;6163791;28;102756;-77
2023/01/09 00:18:00;;;;;;;15.13;13.83;;;;;;;21.26;32.78;95310.47;6172809;28;103868;-78
2023/01/09 00:21:06;;;;;;;16.40;15.00;;;;;;;21.24;32.33;95302.00;6164095;28;104185;-78
2023/01/09 00:24:09;;;;;;;14.50;13.20;;;;;;;21.17;32.11;95290.94;6171753;28;102941;-78
2023/01/09 00:27:14;;;;;;;14.37;12.97;;;;;;;21.24;32.58;95299.34;6163613;28;104468;-77
2023/01/09 00:30:18;;;;;;;14.73;13.43;;;;;;;21.12;32.66;95277.72;6172347;28;102824;-78
2023/01/09 00:33:25;;;;;;;15.47;14.07;;;;;;;21.24;32.60;95298.56;6171913;28;103204;-78
2023/01/09 00:36:28;;;;;;;14.90;13.50;;;;;;;21.12;32.18;95280.38;6170836;28;103148;-79
2023/01/09 00:39:32;;;;;;;15.87;14.40;;;;;;;21.10;32.77;95279.91;6165727;28;103527;-79
2023/01/09 00:42:38;;;;;;;15.07;13.77;;;;;;;21.24;32.55;95306.53;6172402;28;102940;-79
2023/01/09 00:45:41;;;;;;;13.93;12.63;;;;;;;21.05;32.63;95267.47;6172037;28;103510;-78
2023/01/09 00:48:47;;;;;;;14.93;13.63;;;;;;;21.23;32.54;95304.97;6163839;28;103892;-79
2023/01/09 00:51:51;;;;;;;14.00;12.80;;;;;;;21.10;32.25;95269.25;6170481;28;103402;-78
2023/01/09 00:54:55;;;;;;;14.67;13.27;;;;;;;21.02;32.16;95261.94;6171999;28;103379;-78
2023/01/09 00:57:59;;;;;;;13.40;12.20;;;;;;;21.20;32.73;95296.47;6170725;28;103274;-78
2023/01/09 01:01:03;;;;;;;14.20;13.00;;;;;;;21.20;32.40;95298.34;6163586;28;102936;-78
2023/01/09 01:07:42;;;;;;;14.00;12.70;;;;;;;21.06;32.44;95274.38;6170885;28;102965;-78
2023/01/09 01:10:46;;;;;;;13.67;12.47;;;;;;;21.19;32.32;95299.44;6167659;28;105776;-79
2023/01/09 01:13:51;;;;;;;13.10;11.90;;;;;;;21.16;32.19;95294.69;6167102;28;105091;-79
2023/01/09 01:16:54;;;;;;;13.23;12.03;;;;;;;21.19;32.61;95292.25;6171859;28;105859;-79
2023/01/09 01:19:57;;;;;;;12.40;11.40;;;;;;;21.18;32.50;95289.88;6171393;28;104905;-79
2023/01/09 01:23:01;;;;;;;14.07;12.73;;;;;;;21.19;32.31;95286.13;6163276;28;103297;-79
2023/01/09 01:26:06;;;;;;;13.50;12.30;;;;;;;21.04;32.33;95251.78;6171106;28;102952;-78
2023/01/09 01:29:11;;;;;;;13.03;11.93;;;;;;;21.10;32.19;95259.41;6172443;28;103576;-79
2023/01/09 01:32:15;;;;;;;13.80;12.50;;;;;;;21.06;32.15;95262.94;6172058;28;103043;-79
2023/01/09 01:35:18;;;;;;;13.27;12.17;;;;;;;20.90;32.34;95238.44;6163446;28;103847;-79
2023/01/09 01:38:22;;;;;;;13.83;12.63;;;;;;;21.01;32.34;95244.38;6171815;28;104981;-79
2023/01/09 01:41:29;;;;;;;13.93;12.73;;;;;;;21.17;32.26;95269.66;6172106;28;106450;-79
2023/01/09 01:45:01;;;;;;;14.77;13.57;;;;;;;21.16;32.29;95254.75;6155554;28;105540;-79
2023/01/09 01:48:07;;;;;;;14.40;13.20;;;;;;;21.02;32.20;95240.66;6166413;28;102880;-78
2023/01/09 01:51:13;;;;;;;13.10;12.00;;;;;;;21.08;32.33;95245.59;6171635;28;102999;-78
2023/01/09 01:54:26;;;;;;;13.20;12.10;;;;;;;21.15;31.81;95250.53;6171003;28;102644;-78
2023/01/09 01:57:31;;;;;;;14.00;12.80;;;;;;;21.14;32.09;95244.41;6156425;28;103376;-79
2023/01/09 02:00:42;;;;;;;13.80;12.50;;;;;;;20.85;31.56;95198.66;6171306;28;105118;-79
2023/01/09 02:03:45;;;;;;;13.97;12.20;;;;;;;21.04;31.89;95219.84;6157535;28;103805;-78
2023/01/09 02:06:53;;;;;;;14.80;13.60;;;;;;;20.92;31.99;95207.03;6170720;28;103994;-78
2023/01/09 02:09:57;;;;;;;14.07;12.80;;;;;;;21.09;31.98;95219.78;6163108;28;103740;-79
2023/01/09 02:13:01;;;;;;;14.63;13.33;;;;;;;21.14;32.11;95228.44;6158323;28;104260;-79
2023/01/09 02:16:22;;;;;;;13.23;12.13;;;;;;;21.14;31.90;95219.69;6168962;28;102816;-79
2023/01/09 02:19:53;;;;;;;15.03;13.73;;;;;;;21.15;31.97;95218.59;6159021;28;103194;-78
2023/01/09 02:23:08;;;;;;;13.67;12.47;;;;;;;21.14;31.86;95217.03;6167336;28;103848;-79
2023/01/09 02:26:34;;;;;;;14.93;13.63;;;;;;;21.15;31.84;95207.94;6163324;28;105106;-80
2023/01/09 02:30:13;;;;;;;14.03;12.80;;;;;;;21.14;31.68;95215.16;6168814;28;103072;-79
2023/01/09 02:33:42;;;;;;;14.27;13.07;;;;;;;21.10;31.83;95202.72;6163661;28;104201;-77
2023/01/09 02:36:54;;;;;;;15.00;13.70;;;;;;;21.10;31.45;95200.84;6168506;28;103365;-79
2023/01/09 02:40:04;;;;;;;14.90;13.53;;;;;;;21.15;31.69;95211.41;6167579;28;104129;-79
2023/01/09 02:43:10;;;;;;;15.40;14.00;;;;;;;20.85;31.57;95162.19;6154087;28;102771;-79
2023/01/09 02:46:20;;;;;;;15.50;13.97;;;;;;;21.14;31.79;95207.16;6167414;28;103450;-78
2023/01/09 02:49:24;;;;;;;15.30;14.00;;;;;;;21.14;31.56;95211.69;6168282;28;102782;-78
2023/01/09 02:52:38;;;;;;;14.67;13.37;;;;;;;21.04;31.92;95188.72;6167203;28;103704;-79
2023/01/09 02:55:55;;;;;;;13.57;12.43;;;;;;;20.90;31.55;95166.63;6161052;28;103348;-79
2023/01/09 02:59:19;;;;;;;13.87;12.67;;;;;;;21.03;31.66;95187.13;6167204;28;102799;-79
2023/01/09 03:02:39;;;;;;;14.40;13.20;;;;;;;21.01;31.76;95188.53;6166923;28;103137;-80
2023/01/09 03:05:52;;;;;;;13.50;12.40;;;;;;;21.04;31.61;95187.94;6158505;28;103758;-79
2023/01/09 03:09:00;;;;;;;15.03;13.67;;;;;;;21.15;31.71;95208.75;6166873;28;103723;-78
2023/01/09 03:12:09;;;;;;;14.37;13.10;;;;;;;21.02;31.49;95187.44;6166724;28;103418;-79
2023/01/09 03:15:15;;;;;;;14.80;13.50;;;;;;;21.00;31.71;95185.03;6167380;28;102830;-79
2023/01/09 03:18:22;;;;;;;14.07;12.87;;;;;;;21.14;31.65;95193.06;6158732;28;104726;-79
2023/01/09 03:21:29;;;;;;;13.77;12.67;;;;;;;21.15;31.46;95199.97;6155283;28;103136;-79
2023/01/09 03:24:33;;;;;;;14.33;13.13;;;;;;;21.01;31.48;95181.34;6166640;28;103017;-79
2023/01/09 03:27:36;;;;;;;14.40;13.20;;;;;;;21.15;31.58;95207.94;6160019;28;103293;-79
2023/01/09 03:30:40;;;;;;;13.80;12.63;;;;;;;21.05;31.89;95192.19;6166158;28;103298;-78
2023/01/09 03:33:43;;;;;;;14.30;13.10;;;;;;;21.03;31.59;95192.47;6167084;28;103063;-79
2023/01/09 03:36:48;;;;;;;14.23;12.93;;;;;;;20.98;31.48;95181.91;6166704;28;104570;-79
2023/01/09 03:39:51;;;;;;;14.70;13.50;;;;;;;21.04;31.50;95195.91;6157422;28;103010;-80
2023/01/09 03:42:55;;;;;;;13.63;12.37;;;;;;;21.12;31.72;95205.88;6167461;28;103061;-79
2023/01/09 03:45:58;;;;;;;15.33;14.03;;;;;;;21.13;31.69;95204.81;6166825;28;105002;-79
2023/01/09 03:49:02;;;;;;;15.33;14.07;;;;;;;21.09;31.67;95206.47;6167103;28;103051;-79
2023/01/09 03:52:07;;;;;;;13.87;12.67;;;;;;;21.13;31.33;95208.25;6157857;28;104538;-79
2023/01/09 03:55:11;;;;;;;14.27;12.97;;;;;;;20.90;31.25;95172.75;6166233;28;103521;-79
2023/01/09 03:58:18;;;;;;;14.30;13.10;;;;;;;21.07;31.53;95204.13;6166874;28;102813;-79
2023/01/09 04:01:21;;;;;;;13.77;12.57;;;;;;;21.11;31.40;95210.41;6162718;28;104319;-79
2023/01/09 04:04:25;;;;;;;13.93;12.73;;;;;;;21.13;31.20;95210.13;6167055;28;102958;-80
2023/01/09 04:07:30;;;;;;;14.00;12.80;;;;;;;21.15;31.20;95208.75;6170082;28;104986;-78
2023/01/09 04:10:33;;;;;;;13.83;12.67;;;;;;;20.84;31.07;95165.94;6170073;28;107942;-79
2023/01/09 04:13:37;;;;;;;13.93;12.57;;;;;;;20.90;31.81;95175.41;6163192;28;102852;-80
2023/01/09 04:16:41;;;;;;;14.07;12.67;;;;;;;21.12;31.44;95201.34;6171161;28;105515;-81
2023/01/09 04:19:45;;;;;;;14.33;13.03;;;;;;;21.03;31.46;95184.47;6170001;28;102933;-80
2023/01/09 04:22:50;;;;;;;13.53;12.30;;;;;;;21.17;31.30;95201.28;6170590;28;103041;-79
2023/01/09 04:25:54;;;;;;;14.07;12.87;;;;;;;21.20;31.05;95195.34;6163444;28;105479;-80
2023/01/09 04:28:57;;;;;;;15.50;14.10;;;;;;;21.15;30.73;95182.13;6171678;28;103000;-81
2023/01/09 04:32:01;;;;;;;21.33;19.60;;;;;;;21.25;31.32;95186.47;6169975;28;103477;-80
2023/01/09 04:35:04;;;;;;;37.80;34.57;;;;;;;21.27;31.97;95184.31;6167073;28;103780;-81
2023/01/09 04:38:09;;;;;;;49.20;45.30;;;;;;;21.38;33.42;95193.66;6165293;28;102796;-80
2023/01/09 04:41:47;;;;;;;47.20;43.30;;;;;;;21.40;33.56;95196.81;6169384;28;102701;-80
2023/01/09 04:44:37;;;;;;;40.30;37.10;;;;;;;21.47;33.58;95199.84;6170831;28;103388;-79
2023/01/09 04:47:40;;;;;;;35.97;32.93;;;;;;;21.44;33.45;95197.78;6161518;28;103039;-77
2023/01/09 04:50:44;;;;;;;34.07;31.27;;;;;;;21.44;33.13;95195.13;6168671;28;103064;-77
2023/01/09 04:53:49;;;;;;;31.27;28.57;;;;;;;21.43;32.85;95204.22;6169994;28;103010;-79
2023/01/09 04:56:52;;;;;;;28.20;25.90;;;;;;;21.41;33.23;95190.41;6170025;28;104209;-78
2023/01/09 04:59:55;;;;;;;29.10;26.50;;;;;;;21.35;33.88;95174.84;6158738;28;102724;-78
2023/01/09 05:02:58;;;;;;;26.27;24.07;;;;;;;21.44;33.64;95175.72;6165326;28;104395;-78
2023/01/09 05:06:02;;;;;;;26.33;24.00;;;;;;;21.25;33.75;95146.56;6169013;28;102729;-78
2023/01/09 05:09:07;;;;;;;25.43;23.13;;;;;;;21.54;34.60;95188.03;6164744;28;103790;-79
2023/01/09 05:12:10;;;;;;;23.73;21.63;;;;;;;21.17;31.60;95173.84;6163153;28;102936;-78
2023/01/09 05:15:13;;;;;;;23.07;20.97;;;;;;;21.07;33.80;95128.81;6165614;28;105632;-76
2023/01/09 05:18:17;;;;;;;21.07;19.20;;;;;;;21.50;33.74;95182.50;6167561;28;103079;-80
2023/01/09 05:21:20;;;;;;;20.37;18.63;;;;;;;21.44;33.82;95162.41;6162152;28;103174;-79
2023/01/09 05:24:25;;;;;;;20.57;18.73;;;;;;;21.43;32.83;95180.25;6167933;28;102742;-79
2023/01/09 05:27:29;;;;;;;19.13;17.23;;;;;;;21.28;32.30;95161.91;6166256;28;103194;-79
2023/01/09 05:30:32;;;;;;;18.50;16.90;;;;;;;21.46;32.49;95184.97;6167150;28;103334;-79
2023/01/09 05:33:35;;;;;;;19.10;17.20;;;;;;;21.56;31.90;95193.84;6158479;28;103361;-79
2023/01/09 05:36:39;;;;;;;17.70;16.10;;;;;;;21.44;32.24;95179.16;6168068;28;102930;-79
2023/01/09 05:39:43;;;;;;;19.43;17.70;;;;;;;21.24;31.85;95144.19;6167901;28;103799;-78
2023/01/09 05:42:47;;;;;;;16.93;15.53;;;;;;;21.22;32.24;95149.81;6167538;28;102773;-77
2023/01/09 05:45:50;;;;;;;18.20;16.70;;;;;;;21.45;32.31;95190.59;6159351;28;104354;-77
2023/01/09 05:48:53;;;;;;;18.23;16.53;;;;;;;21.27;32.38;95163.00;6167178;28;104452;-76
2023/01/09 05:51:57;;;;;;;18.20;16.50;;;;;;;21.39;32.50;95184.59;6167135;28;103526;-78
2023/01/09 05:55:02;;;;;;;18.00;16.40;;;;;;;20.89;32.49;95109.19;6164104;28;103332;-78
2023/01/09 05:58:05;;;;;;;18.27;16.77;;;;;;;21.34;32.60;95179.38;6164852;28;103182;-78
2023/01/09 06:01:08;;;;;;;18.90;17.30;;;;;;;21.12;32.24;95142.81;6166826;28;105598;-78
2023/01/09 06:04:12;;;;;;;18.10;16.40;;;;;;;21.21;32.25;95167.66;6165576;28;102783;-78
2023/01/09 06:07:15;;;;;;;18.53;16.93;;;;;;;21.29;32.53;95176.81;6158755;28;103892;-77
2023/01/09 06:10:24;;;;;;;19.63;17.77;;;;;;;21.07;32.50;95140.25;6166279;28;104173;-78
2023/01/09 06:13:29;;;;;;;17.60;16.10;;;;;;;21.21;32.21;95172.19;6167258;28;103360;-77
2023/01/09 06:16:33;;;;;;;17.70;16.10;;;;;;;21.22;32.36;95168.44;6167832;28;102904;-79
2023/01/09 06:19:36;;;;;;;20.80;18.93;;;;;;;20.97;31.98;95124.44;6159325;28;103925;-78
2023/01/09 06:22:40;;;;;;;19.70;17.90;;;;;;;21.19;32.37;95171.69;6167024;28;105269;-78
2023/01/09 06:25:45;;;;;;;19.00;17.40;;;;;;;21.07;32.15;95156.22;6166556;28;102969;-78
2023/01/09 06:28:48;;;;;;;20.23;18.47;;;;;;;21.17;32.12;95169.34;6162222;28;103001;-78
2023/01/09 06:31:51;;;;;;;19.77;18.00;;;;;;;21.14;32.30;95166.47;6162465;28;103064;-79
2023/01/09 06:34:56;;;;;;;21.70;19.70;;;;;;;21.16;32.25;95167.72;6166788;28;103396;-78
2023/01/09 06:38:02;;;;;;;22.13;20.23;;;;;;;21.10;32.60;95155.63;6168306;28;103337;-78
2023/01/09 06:41:07;;;;;;;21.40;19.50;;;;;;;21.23;32.05;95177.22;6161408;28;103427;-79
2023/01/09 06:44:10;;;;;;;21.80;19.73;;;;;;;21.12;32.11;95152.66;6170054;28;106284;-77
2023/01/09 06:47:13;;;;;;;19.60;17.97;;;;;;;21.24;32.07;95168.94;6170366;28;104325;-78
2023/01/09 06:50:17;;;;;;;19.17;17.47;;;;;;;21.21;31.92;95162.34;6170353;28;103020;-78
2023/01/09 06:53:21;;;;;;;19.73;18.00;;;;;;;21.15;31.68;95147.53;6161471;28;103237;-78
2023/01/09 06:56:26;;;;;;;20.10;18.40;;;;;;;21.30;31.82;95166.94;6171018;28;103163;-77
2023/01/09 06:59:32;;;;;;;19.30;17.53;;;;;;;21.30;31.64;95170.41;6171495;28;105910;-78
2023/01/09 07:02:35;;;;;;;20.10;18.50;;;;;;;21.25;31.92;95159.84;6167411;28;102797;-76
2023/01/09 07:05:45;;;;;;;19.73;17.80;;;;;;;21.44;31.62;95157.06;6165648;28;103456;-78
2023/01/09 07:08:48;;;;;;;19.17;17.57;;;;;;;21.34;31.06;95118.16;6169978;28;103344;-77
2023/01/09 07:11:53;;;;;;;18.87;17.17;;;;;;;21.68;30.97;95154.19;6170016;28;104245;-77
2023/01/09 07:14:56;;;;;;;18.70;17.10;;;;;;;21.35;30.78;95098.44;6158646;28;102985;-77
2023/01/09 07:18:01;;;;;;;18.77;17.23;;;;;;;21.74;30.72;95139.66;6164847;28;103354;-78
2023/01/09 07:21:06;;;;;;;17.47;16.00;;;;;;;22.03;30.37;95160.63;6164969;28;104092;-78
2023/01/09 07:24:09;;;;;;;18.67;17.07;;;;;;;21.96;30.90;95147.69;6165126;28;103770;-79
2023/01/09 07:27:14;;;;;;;17.17;15.77;;;;;;;21.93;30.80;95172.28;6155688;28;103031;-78
2023/01/09 07:30:18;;;;;;;17.77;16.27;;;;;;;21.93;30.57;95166.94;6166051;28;104131;-79
2023/01/09 07:33:21;;;;;;;17.70;15.90;;;;;;;21.75;30.96;95135.91;6163992;28;103133;-78
2023/01/09 07:36:24;;;;;;;18.57;16.90;;;;;;;21.95;30.72;95159.44;6165068;28;103590;-77
2023/01/09 07:39:27;;;;;;;16.70;15.30;;;;;;;21.83;31.08;95140.53;6160547;28;103191;-79
2023/01/09 07:42:32;;;;;;;17.23;15.73;;;;;;;22.01;31.11;95160.91;6169403;28;103023;-78
2023/01/09 07:45:36;;;;;;;16.10;14.70;;;;;;;21.88;31.08;95142.31;6168795;28;103340;-78
2023/01/09 07:48:39;;;;;;;16.70;15.30;;;;;;;21.84;30.84;95136.00;6164001;28;103368;-78
2023/01/09 07:51:43;;;;;;;17.23;15.83;;;;;;;22.00;30.93;95163.84;6166891;28;104338;-78
2023/01/09 07:54:47;;;;;;;16.30;14.93;;;;;;;22.03;30.76;95169.41;6168463;28;103268;-77
2023/01/09 07:57:52;;;;;;;16.30;14.90;;;;;;;22.02;30.67;95167.81;6169609;28;103453;-77
2023/01/09 08:00:56;;;;;;;16.97;15.57;;;;;;;21.99;30.94;95164.94;6161886;28;103320;-77
2023/01/09 08:04:00;;;;;;;17.07;15.67;;;;;;;22.02;30.74;95172.38;6168094;28;102861;-78
2023/01/09 08:07:03;;;;;;;17.23;15.80;;;;;;;22.05;30.90;95177.09;6167635;28;103705;-78
2023/01/09 08:10:07;;;;;;;17.47;16.07;;;;;;;21.93;31.15;95174.94;6167768;28;103475;-77
2023/01/09 08:13:11;;;;;;;17.93;16.33;;;;;;;22.03;31.21;95184.59;6158610;28;103547;-77
2023/01/09 08:16:14;;;;;;;17.60;15.90;;;;;;;22.01;30.90;95187.56;6167760;28;102782;-77
2023/01/09 08:19:17;;;;;;;17.90;16.30;;;;;;;21.63;30.94;95136.41;6167733;28;103152;-77
2023/01/09 08:22:20;;;;;;;16.70;15.30;;;;;;;21.97;30.93;95186.56;6163040;28;103360;-77
2023/01/09 08:25:24;;;;;;;17.77;16.27;;;;;;;22.00;31.11;95179.84;6161974;28;103504;-77
2023/01/09 08:28:28;;;;;;;17.80;16.27;;;;;;;21.94;30.66;95162.41;6167941;28;103617;-77
2023/01/09 08:31:31;;;;;;;17.57;16.10;;;;;;;21.94;30.86;95165.06;6167242;28;102807;-78
2023/01/09 08:34:35;;;;;;;17.53;16.10;;;;;;;21.99;30.69;95163.06;6157690;28;106539;-77
2023/01/09 08:37:38;;;;;;;16.80;15.60;;;;;;;21.92;31.25;95157.38;6165892;28;103020;-77
2023/01/09 08:40:41;;;;;;;17.63;16.07;;;;;;;22.08;30.96;95179.13;6167000;28;102965;-77
2023/01/09 08:47:07;;;;;;;17.07;15.67;;;;;;;22.02;30.98;95157.16;6157712;28;103215;-76
2023/01/09 08:50:12;;;;;;;18.33;16.53;;;;;;;22.05;30.86;95166.44;6166361;28;103031;-77
2023/01/09 08:53:15;;;;;;;16.87;15.33;;;;;;;22.14;30.97;95158.47;6167010;28;105557;-77
2023/01/09 08:56:18;;;;;;;17.40;15.90;;;;;;;22.13;30.87;95156.91;6162201;28;103131;-77
2023/01/09 08:59:23;;;;;;;17.60;16.10;;;;;;;22.13;30.81;95163.03;6161588;28;103018;-76
2023/01/09 09:02:26;;;;;;;17.27;15.77;;;;;;;21.80;31.32;95109.94;6166743;28;103924;-78
2023/01/09 09:05:31;;;;;;;18.20;16.70;;;;;;;22.06;30.79;95134.16;6166598;28;103583;-78
2023/01/09 09:08:34;;;;;;;16.03;14.73;;;;;;;22.02;30.81;95130.50;6158248;28;103600;-78
2023/01/09 09:11:37;;;;;;;16.63;15.33;;;;;;;22.15;30.79;95147.50;6169104;28;103329;-78
2023/01/09 09:18:05;;;;;;;17.63;16.13;;;;;;;22.04;30.91;95109.69;6166655;28;103706;-77
2023/01/09 09:21:10;;;;;;;16.77;15.37;;;;;;;22.16;31.09;95134.97;6158553;28;102791;-77
2023/01/09 09:24:13;;;;;;;16.67;15.27;;;;;;;22.16;30.72;95130.44;6166365;28;103007;-79
2023/01/09 09:27:16;;;;;;;17.03;15.53;;;;;;;22.16;31.22;95121.66;6167647;28;106111;-78
2023/01/09 09:30:22;;;;;;;16.77;15.30;;;;;;;22.13;31.14;95119.59;6163959;28;102912;-78
2023/01/09 09:33:25;;;;;;;16.60;14.97;;;;;;;22.02;31.07;95093.22;6161290;28;103028;-77
2023/01/09 09:36:29;;;;;;;15.50;14.20;;;;;;;22.16;31.33;95103.00;6166093;28;103369;-77
2023/01/09 09:39:33;;;;;;;16.97;15.47;;;;;;;22.18;31.36;95096.28;6165404;28;103142;-77
2023/01/09 09:46:26;;;;;;;16.23;14.90;;;;;;;22.20;30.76;95072.78;6166716;28;103019;-78
2023/01/09 09:49:38;;;;;;;16.30;14.80;;;;;;;22.13;31.12;95037.75;6166140;28;103037;-77
2023/01/09 09:52:48;;;;;;;16.10;14.70;;;;;;;22.25;30.67;95042.53;6166630;28;106260;-77
2023/01/09 09:55:51;;;;;;;15.87;14.47;;;;;;;22.21;31.23;95037.03;6157352;28;104718;-79
2023/01/09 09:58:59;;;;;;;15.97;14.47;;;;;;;22.20;30.79;95013.34;6166322;28;105282;-77
2023/01/09 10:02:15;;;;;;;15.20;13.90;;;;;;;22.33;30.75;95033.78;6166868;28;106311;-77
2023/01/09 10:05:25;;;;;;;15.67;14.40;;;;;;;22.16;30.78;94999.03;6157013;28;104168;-78
2023/01/09 10:08:39;;;;;;;14.33;13.13;;;;;;;22.34;31.00;94992.69;6165193;28;103873;-77
2023/01/09 10:11:47;;;;;;;13.80;12.47;;;;;;;22.24;30.93;94987.66;6165321;28;103095;-77
2023/01/09 10:14:50;;;;;;;14.37;13.07;;;;;;;22.21;31.02;94956.28;6165550;28;103048;-77
2023/01/09 10:18:08;;;;;;;14.40;13.20;;;;;;;22.33;31.16;94959.91;6157447;28;103006;-77
2023/01/09 10:21:16;;;;;;;13.63;12.53;;;;;;;22.28;31.02;94962.72;6166277;28;106887;-77
2023/01/09 10:24:34;;;;;;;13.80;12.70;;;;;;;22.34;31.19;94950.03;6166154;28;104715;-77
2023/01/09 10:27:55;;;;;;;13.97;12.73;;;;;;;22.24;30.97;94935.13;6160872;28;105387;-78
2023/01/09 10:31:04;;;;;;;13.97;12.77;;;;;;;22.08;31.36;94900.09;6165429;28;102691;-77
2023/01/09 10:34:30;;;;;;;12.80;11.80;;;;;;;22.12;31.07;94894.94;6165684;28;103111;-77
2023/01/09 10:37:37;;;;;;;13.17;12.10;;;;;;;22.32;31.06;94933.56;6165576;28;103509;-77
2023/01/09 10:40:46;;;;;;;11.80;10.90;;;;;;;22.16;31.25;94905.75;6156184;28;103308;-76
2023/01/09 10:43:55;;;;;;;12.53;11.53;;;;;;;22.31;31.01;94934.66;6165221;28;103594;-77
2023/01/09 10:47:00;;;;;;;12.77;11.67;;;;;;;22.29;31.41;94920.88;6165364;28;103068;-77
2023/01/09 10:50:17;;;;;;;12.60;11.60;;;;;;;22.32;31.18;94917.56;6161631;28;106414;-77
2023/01/09 10:53:23;;;;;;;12.47;11.40;;;;;;;22.31;31.38;94908.00;6161773;28;104432;-79
2023/01/09 10:56:29;;;;;;;12.40;11.33;;;;;;;22.30;31.10;94917.09;6165695;28;104311;-76
2023/01/09 10:59:32;;;;;;;12.80;11.77;;;;;;;22.01;31.69;94870.47;6165957;28;105744;-77
2023/01/09 11:02:36;;;;;;;12.80;11.80;;;;;;;22.09;31.08;94882.25;6156452;28;103315;-77
2023/01/09 11:05:41;;;;;;;11.80;10.90;;;;;;;22.12;31.49;94878.94;6165227;28;106328;-77
2023/01/09 11:08:49;;;;;;;11.47;10.53;;;;;;;21.65;31.58;94803.25;6164050;28;104394;-77
2023/01/09 11:11:52;;;;;;;11.07;10.17;;;;;;;22.21;31.45;94879.78;6165882;28;103481;-76
2023/01/09 11:14:56;;;;;;;10.70;9.87;;;;;;;22.22;31.01;94864.56;6160038;28;102787;-77
2023/01/09 11:18:18;;;;;;;12.23;11.23;;;;;;;22.08;31.38;94846.03;6168381;28;103049;-77
2023/01/09 11:21:31;;;;;;;10.73;9.83;;;;;;;21.99;31.32;94838.00;6168534;28;104775;-77
2023/01/09 11:24:35;;;;;;;11.40;10.47;;;;;;;22.13;31.84;94855.75;6161686;28;103624;-78
2023/01/09 11:27:40;;;;;;;11.07;10.17;;;;;;;22.01;31.57;94835.03;6169928;28;104333;-77
2023/01/09 11:30:52;;;;;;;9.93;9.13;;;;;;;22.01;31.43;94835.84;6169382;28;103072;-77
2023/01/09 11:33:56;;;;;;;11.27;10.27;;;;;;;22.12;31.59;94846.97;6169387;28;103313;-78
2023/01/09 11:37:07;;;;;;;10.70;9.80;;;;;;;21.51;31.66;94764.22;6160567;28;104478;-77
2023/01/09 11:40:18;;;;;;;10.20;9.40;;;;;;;22.02;31.51;94837.41;6169994;28;103338;-77
2023/01/09 11:43:36;;;;;;;10.97;10.07;;;;;;;21.94;31.46;94824.84;6169303;28;104128;-77
2023/01/09 11:46:43;;;;;;;10.43;9.63;;;;;;;21.92;31.50;94835.00;6163970;28;103947;-78
2023/01/09 11:49:48;;;;;;;11.30;10.30;;;;;;;21.91;31.92;94830.00;6164417;28;103865;-77
2023/01/09 11:53:14;;;;;;;10.70;9.90;;;;;;;22.00;32.01;94839.56;6168037;28;103538;-77
2023/01/09 11:56:18;;;;;;;10.10;9.30;;;;;;;21.90;31.89;94813.22;6169026;28;105549;-78
2023/01/09 11:59:23;;;;;;;10.37;9.57;;;;;;;22.00;31.60;94839.56;6158793;28;103328;-77
2023/01/09 12:02:47;;;;;;;10.10;9.30;;;;;;;21.89;31.62;94822.31;6167791;28;107368;-77
2023/01/09 12:06:00;;;;;;;10.27;9.43;;;;;;;21.87;31.58;94813.84;6169605;28;102956;-78
2023/01/09 12:09:06;;;;;;;10.20;9.30;;;;;;;22.01;31.66;94824.38;6168594;28;102920;-79
2023/01/09 12:12:21;;;;;;;9.63;8.93;;;;;;;22.04;32.06;94823.78;6160156;28;104153;-78
2023/01/09 12:15:31;;;;;;;9.20;8.50;;;;;;;21.78;31.57;94771.16;6168244;28;106206;-78
2023/01/09 12:18:51;;;;;;;9.03;8.30;;;;;;;22.07;31.96;94810.59;6168139;28;103069;-78
2023/01/09 12:22:02;;;;;;;9.80;9.03;;;;;;;22.07;31.80;94812.47;6158769;28;103427;-78
2023/01/09 12:25:20;;;;;;;9.47;8.67;;;;;;;21.99;31.78;94790.03;6167844;28;103333;-78
2023/01/09 12:28:59;;;;;;;9.63;8.87;;;;;;;22.11;31.42;94800.09;6168053;28;103217;-79
2023/01/09 12:32:19;;;;;;;8.90;8.20;;;;;;;21.94;31.94;94768.09;6159071;28;103888;-80
2023/01/09 12:35:35;;;;;;;9.03;8.33;;;;;;;22.09;31.56;94792.41;6164218;28;104950;-78
2023/01/09 12:38:45;;;;;;;9.80;9.00;;;;;;;21.96;31.62;94766.69;6168590;28;104090;-78
2023/01/09 12:42:13;;;;;;;9.40;8.57;;;;;;;21.93;31.56;94769.97;6166960;28;103097;-78
2023/01/09 12:45:42;;;;;;;9.43;8.73;;;;;;;21.86;31.50;94759.00;6159160;28;106343;-77
2023/01/09 12:49:21;;;;;;;9.57;8.77;;;;;;;21.77;31.94;94745.63;6165290;28;103897;-77
2023/01/09 12:52:31;;;;;;;9.10;8.30;;;;;;;21.99;31.69;94775.94;6167349;28;106279;-79
2023/01/09 12:55:40;;;;;;;8.80;8.10;;;;;;;21.96;31.65;94768.56;6159590;28;103624;-79
2023/01/09 12:58:49;;;;;;;9.00;8.30;;;;;;;21.77;31.92;94739.53;6167498;28;104252;-79
2023/01/09 13:01:53;;;;;;;9.33;8.63;;;;;;;21.60;32.04;94718.19;6166780;28;103083;-77
2023/01/09 13:05:00;;;;;;;9.13;8.43;;;;;;;21.86;32.08;94767.00;6166502;28;104317;-77
2023/01/09 13:08:05;;;;;;;9.80;8.90;;;;;;;21.69;32.36;94737.63;6159976;28;103787;-78
2023/01/09 13:11:15;;;;;;;9.00;8.20;;;;;;;21.80;32.06;94749.56;6166428;28;103421;-78
2023/01/09 13:14:35;;;;;;;8.53;7.83;;;;;;;20.73;31.96;94584.88;6167127;28;104337;-77
2023/01/09 13:17:42;;;;;;;8.30;7.60;;;;;;;21.66;32.34;94727.59;6163114;28;103016;-78
2023/01/09 13:20:51;;;;;;;8.47;7.77;;;;;;;21.44;32.21;94702.63;6162840;28;103793;-78
2023/01/09 13:24:01;;;;;;;8.97;8.27;;;;;;;21.76;32.32;94761.94;6166530;28;104397;-78
2023/01/09 13:27:11;;;;;;;8.37;7.63;;;;;;;21.63;32.39;94746.84;6163251;28;103536;-78
2023/01/09 13:30:29;;;;;;;8.27;7.60;;;;;;;21.64;32.19;94740.44;6158546;28;102797;-78
2023/01/09 13:33:36;;;;;;;9.13;8.40;;;;;;;20.89;32.38;94622.47;6165982;28;106684;-77
2023/01/09 13:36:47;;;;;;;8.53;7.83;;;;;;;21.42;32.22;94702.16;6166378;28;103599;-77
2023/01/09 13:39:57;;;;;;;8.30;7.70;;;;;;;21.67;32.32;94737.13;6166292;28;103060;-78
2023/01/09 13:43:03;;;;;;;8.77;8.03;;;;;;;21.48;31.99;94705.47;6140297;28;103330;-77
2023/01/09 13:46:07;;;;;;;8.30;7.60;;;;;;;21.64;32.22;94729.78;6165933;28;103316;-77
2023/01/09 13:49:33;;;;;;;8.50;7.80;;;;;;;21.63;32.39;94744.97;6166451;28;102827;-78
2023/01/09 13:52:38;;;;;;;7.73;7.13;;;;;;;21.62;32.11;94734.63;6157648;28;102859;-78
2023/01/09 13:56:05;;;;;;;7.27;6.67;;;;;;;21.63;32.05;94733.53;6165164;28;103945;-77
2023/01/09 13:59:26;;;;;;;8.53;7.83;;;;;;;21.61;32.50;94722.41;6165934;28;103041;-78
2023/01/09 14:02:56;;;;;;;7.70;7.10;;;;;;;21.63;32.49;94738.84;6165516;28;103139;-77
2023/01/09 14:06:17;;;;;;;8.13;7.47;;;;;;;21.63;32.29;94734.31;6153075;28;106375;-77
2023/01/09 14:09:22;;;;;;;8.20;7.50;;;;;;;21.57;32.26;94729.47;6166196;28;102941;-77
2023/01/09 14:12:27;;;;;;;8.17;7.50;;;;;;;21.63;32.23;94738.84;6165163;28;103169;-77
2023/01/09 14:15:36;;;;;;;7.40;6.90;;;;;;;21.51;32.21;94705.66;6157555;28;102894;-77
2023/01/09 14:18:50;;;;;;;8.10;7.40;;;;;;;21.56;32.37;94730.56;6166318;28;103347;-77
2023/01/09 14:21:55;;;;;;;7.80;7.20;;;;;;;21.56;32.32;94722.56;6165217;28;103378;-77
2023/01/09 14:25:07;;;;;;;8.17;7.50;;;;;;;21.62;32.12;94726.63;6165878;28;104382;-77
2023/01/09 14:28:21;;;;;;;7.80;7.20;;;;;;;21.62;31.96;94721.31;6156363;28;103094;-77
2023/01/09 14:31:28;;;;;;;7.50;6.90;;;;;;;21.64;32.34;94724.44;6166337;28;102747;-77